Accueil
METAR-TAF:

METAR-TAF

Aéroports :

Aéroport de Stockholm-Arlanda

Stockholm-Arlanda, Suède

latitude: 59-39N, longitude: 017-57E, altitude: 38 m

Observation

Le bulletin a été fait il y a 19 minutes, à 03:50 UTC
Vent 6 kt de ouest
Température 9°C
Humidité 71%
Pression 1007 hPa
Visibilité 10 km ou plus
pas de nuages en-dessous de 1500 mètres et pas de cumulonimbus.

METAR: ESSA 230350Z 28006KT CAVOK 09/04 Q1007 NOSIG

Heure: 06:09 (04:09 UTC)

Prévision

Le bulletin a été fait il y a 4 heures et 39 minutes, à 23:30 UTC
Prévision valable du 23 à 00 UTC au 23 à 24 UTC
Vent 10 kt de ouest
Visibilité 10 km ou plus
pas de nuages en-dessous de 1500 mètres et pas de cumulonimbus.
Evoluant progressivement
du 23 à 10 UTC au 23 à 12 UTC
Vent 7 kt de nord/nord-ouest

TAF: ESSA 222330Z 2300/2324 27010KT CAVOK BECMG 2310/2312 33007KT

Observations et prévisions météorologiques de plus de 4000 aéroports (messages METAR et TAF).

Les stations disponibles sont représentées par des disques jaunes et rouges sur la carte.

Passer la souris dessus pour voir le nom de la station.

Cliquer dessus pour voir les observations et prévisions météorologiques.

Pour changer de carte: cliquez sur les boutons verts avec une croix noire pour zoomer, sur le bouton vert avec un tiret pour effectuer un zoom arrière, ou sur les flèches vertes pour les cartes adjacentes.


METAR-TAF: